sensor_id;sensor_type;location;lat;lon;timestamp;temperature;humidity
47546;DHT22;50104;52.002;4.688;2023-07-13T00:02:24;20.00;72.60
47546;DHT22;50104;52.002;4.688;2023-07-13T00:07:27;20.00;72.80
47546;DHT22;50104;52.002;4.688;2023-07-13T00:12:29;20.00;72.80
47546;DHT22;50104;52.002;4.688;2023-07-13T00:17:31;20.00;72.80
47546;DHT22;50104;52.002;4.688;2023-07-13T00:22:32;19.90;73.10
47546;DHT22;50104;52.002;4.688;2023-07-13T00:27:32;19.90;73.00
47546;DHT22;50104;52.002;4.688;2023-07-13T00:32:33;19.80;73.10
47546;DHT22;50104;52.002;4.688;2023-07-13T00:37:35;19.80;73.50
47546;DHT22;50104;52.002;4.688;2023-07-13T00:42:36;19.80;73.40
47546;DHT22;50104;52.002;4.688;2023-07-13T00:47:40;19.80;73.50
47546;DHT22;50104;52.002;4.688;2023-07-13T00:52:51;19.80;73.50
47546;DHT22;50104;52.002;4.688;2023-07-13T00:57:55;19.80;73.60
47546;DHT22;50104;52.002;4.688;2023-07-13T01:02:56;19.80;73.20
47546;DHT22;50104;52.002;4.688;2023-07-13T01:07:58;19.70;72.90
47546;DHT22;50104;52.002;4.688;2023-07-13T01:12:59;19.70;72.80
47546;DHT22;50104;52.002;4.688;2023-07-13T01:18:00;19.60;73.10
47546;DHT22;50104;52.002;4.688;2023-07-13T01:23:08;19.60;73.20
47546;DHT22;50104;52.002;4.688;2023-07-13T01:28:10;19.60;73.30
47546;DHT22;50104;52.002;4.688;2023-07-13T01:33:13;19.50;72.80
47546;DHT22;50104;52.002;4.688;2023-07-13T01:38:19;19.40;73.20
47546;DHT22;50104;52.002;4.688;2023-07-13T01:43:21;19.40;73.50
47546;DHT22;50104;52.002;4.688;2023-07-13T01:48:22;19.30;73.80
47546;DHT22;50104;52.002;4.688;2023-07-13T01:53:23;19.20;73.80
47546;DHT22;50104;52.002;4.688;2023-07-13T01:58:24;19.10;74.10
47546;DHT22;50104;52.002;4.688;2023-07-13T02:03:25;19.10;74.70
47546;DHT22;50104;52.002;4.688;2023-07-13T02:08:25;19.00;75.00
47546;DHT22;50104;52.002;4.688;2023-07-13T02:13:27;19.00;74.80
47546;DHT22;50104;52.002;4.688;2023-07-13T02:18:28;18.90;74.70
47546;DHT22;50104;52.002;4.688;2023-07-13T02:23:29;18.90;74.60
47546;DHT22;50104;52.002;4.688;2023-07-13T02:28:30;18.90;74.50
47546;DHT22;50104;52.002;4.688;2023-07-13T02:33:31;18.80;74.40
47546;DHT22;50104;52.002;4.688;2023-07-13T02:38:33;18.70;73.80
47546;DHT22;50104;52.002;4.688;2023-07-13T02:43:36;18.70;74.40
47546;DHT22;50104;52.002;4.688;2023-07-13T02:48:39;18.60;75.00
47546;DHT22;50104;52.002;4.688;2023-07-13T02:53:40;18.50;74.60
47546;DHT22;50104;52.002;4.688;2023-07-13T02:58:41;18.50;74.40
47546;DHT22;50104;52.002;4.688;2023-07-13T03:03:42;18.40;74.90
47546;DHT22;50104;52.002;4.688;2023-07-13T03:08:44;18.30;75.00
47546;DHT22;50104;52.002;4.688;2023-07-13T03:13:45;18.30;75.00
47546;DHT22;50104;52.002;4.688;2023-07-13T03:18:47;18.20;75.80
47546;DHT22;50104;52.002;4.688;2023-07-13T03:23:48;18.20;76.40
47546;DHT22;50104;52.002;4.688;2023-07-13T03:28:49;18.10;75.80
47546;DHT22;50104;52.002;4.688;2023-07-13T03:33:50;18.10;76.40
47546;DHT22;50104;52.002;4.688;2023-07-13T03:38:55;18.00;76.80
47546;DHT22;50104;52.002;4.688;2023-07-13T03:43:57;18.00;77.70
47546;DHT22;50104;52.002;4.688;2023-07-13T03:48:58;17.90;77.90
47546;DHT22;50104;52.002;4.688;2023-07-13T03:53:59;17.90;77.50
47546;DHT22;50104;52.002;4.688;2023-07-13T03:59:00;17.90;77.90
47546;DHT22;50104;52.002;4.688;2023-07-13T04:04:02;17.80;78.30
47546;DHT22;50104;52.002;4.688;2023-07-13T04:09:04;17.80;78.50
47546;DHT22;50104;52.002;4.688;2023-07-13T04:14:08;17.80;78.70
47546;DHT22;50104;52.002;4.688;2023-07-13T04:19:10;17.70;79.00
47546;DHT22;50104;52.002;4.688;2023-07-13T04:24:10;17.70;79.20
47546;DHT22;50104;52.002;4.688;2023-07-13T04:29:11;17.70;80.00
47546;DHT22;50104;52.002;4.688;2023-07-13T04:34:12;17.70;79.70
47546;DHT22;50104;52.002;4.688;2023-07-13T04:39:13;17.70;79.20
47546;DHT22;50104;52.002;4.688;2023-07-13T04:44:14;17.80;80.10
47546;DHT22;50104;52.002;4.688;2023-07-13T04:49:15;17.80;80.40
47546;DHT22;50104;52.002;4.688;2023-07-13T04:54:15;17.80;79.90
47546;DHT22;50104;52.002;4.688;2023-07-13T04:59:16;17.90;80.30
47546;DHT22;50104;52.002;4.688;2023-07-13T05:04:17;18.00;80.40
47546;DHT22;50104;52.002;4.688;2023-07-13T05:09:18;18.00;80.70
47546;DHT22;50104;52.002;4.688;2023-07-13T05:14:19;18.10;80.80
47546;DHT22;50104;52.002;4.688;2023-07-13T05:19:19;18.10;81.10
47546;DHT22;50104;52.002;4.688;2023-07-13T05:24:21;18.20;81.00
47546;DHT22;50104;52.002;4.688;2023-07-13T05:29:22;18.30;81.10
47546;DHT22;50104;52.002;4.688;2023-07-13T05:34:23;18.30;81.40
47546;DHT22;50104;52.002;4.688;2023-07-13T05:39:24;18.40;81.70
47546;DHT22;50104;52.002;4.688;2023-07-13T05:44:26;18.50;82.30
47546;DHT22;50104;52.002;4.688;2023-07-13T05:49:27;18.60;82.30
47546;DHT22;50104;52.002;4.688;2023-07-13T05:54:28;18.80;82.20
47546;DHT22;50104;52.002;4.688;2023-07-13T05:59:30;18.90;82.70
47546;DHT22;50104;52.002;4.688;2023-07-13T06:04:31;19.00;82.70
47546;DHT22;50104;52.002;4.688;2023-07-13T06:09:31;19.20;82.20
47546;DHT22;50104;52.002;4.688;2023-07-13T06:14:32;19.30;81.70
47546;DHT22;50104;52.002;4.688;2023-07-13T06:19:33;19.40;80.80
47546;DHT22;50104;52.002;4.688;2023-07-13T06:24:34;19.50;78.80
47546;DHT22;50104;52.002;4.688;2023-07-13T06:29:35;19.60;76.40
47546;DHT22;50104;52.002;4.688;2023-07-13T06:34:36;19.60;75.90
47546;DHT22;50104;52.002;4.688;2023-07-13T06:39:37;19.50;76.30
47546;DHT22;50104;52.002;4.688;2023-07-13T06:44:38;19.50;76.50
47546;DHT22;50104;52.002;4.688;2023-07-13T06:49:38;19.40;76.80
47546;DHT22;50104;52.002;4.688;2023-07-13T06:54:39;19.40;77.30
47546;DHT22;50104;52.002;4.688;2023-07-13T06:59:40;19.50;77.20
47546;DHT22;50104;52.002;4.688;2023-07-13T07:04:41;19.50;77.20
47546;DHT22;50104;52.002;4.688;2023-07-13T07:09:42;19.60;76.70
47546;DHT22;50104;52.002;4.688;2023-07-13T07:14:43;19.60;76.70
47546;DHT22;50104;52.002;4.688;2023-07-13T07:19:43;19.60;76.80
47546;DHT22;50104;52.002;4.688;2023-07-13T07:24:44;19.70;78.30
47546;DHT22;50104;52.002;4.688;2023-07-13T07:29:45;20.00;78.60
47546;DHT22;50104;52.002;4.688;2023-07-13T07:34:46;20.30;78.50
47546;DHT22;50104;52.002;4.688;2023-07-13T07:39:47;20.70;77.80
47546;DHT22;50104;52.002;4.688;2023-07-13T07:44:48;21.10;76.90
47546;DHT22;50104;52.002;4.688;2023-07-13T07:49:48;21.40;75.00
47546;DHT22;50104;52.002;4.688;2023-07-13T07:54:49;21.60;73.00
47546;DHT22;50104;52.002;4.688;2023-07-13T07:59:50;21.60;72.10
47546;DHT22;50104;52.002;4.688;2023-07-13T08:04:51;21.50;71.80
47546;DHT22;50104;52.002;4.688;2023-07-13T08:09:53;21.40;73.20
47546;DHT22;50104;52.002;4.688;2023-07-13T08:14:54;21.40;73.10
47546;DHT22;50104;52.002;4.688;2023-07-13T08:19:57;21.40;73.00
47546;DHT22;50104;52.002;4.688;2023-07-13T08:24:59;21.30;73.50
47546;DHT22;50104;52.002;4.688;2023-07-13T08:30:00;21.30;74.50
47546;DHT22;50104;52.002;4.688;2023-07-13T08:35:01;21.30;75.70
47546;DHT22;50104;52.002;4.688;2023-07-13T08:40:02;21.50;76.40
47546;DHT22;50104;52.002;4.688;2023-07-13T08:45:23;21.60;76.30
47546;DHT22;50104;52.002;4.688;2023-07-13T08:50:34;21.80;75.70
47546;DHT22;50104;52.002;4.688;2023-07-13T08:55:57;22.00;74.70
47546;DHT22;50104;52.002;4.688;2023-07-13T09:01:14;22.10;72.90
47546;DHT22;50104;52.002;4.688;2023-07-13T09:06:20;22.20;71.90
47546;DHT22;50104;52.002;4.688;2023-07-13T09:11:49;22.10;71.40
47546;DHT22;50104;52.002;4.688;2023-07-13T09:16:56;22.00;71.80
47546;DHT22;50104;52.002;4.688;2023-07-13T09:21:57;21.90;72.90
47546;DHT22;50104;52.002;4.688;2023-07-13T09:27:00;21.90;74.80
47546;DHT22;50104;52.002;4.688;2023-07-13T09:32:06;22.00;75.90
47546;DHT22;50104;52.002;4.688;2023-07-13T09:37:10;22.10;73.60
47546;DHT22;50104;52.002;4.688;2023-07-13T09:47:23;22.30;71.70
47546;DHT22;50104;52.002;4.688;2023-07-13T09:52:28;22.30;70.80
47546;DHT22;50104;52.002;4.688;2023-07-13T09:57:48;22.30;70.10
47546;DHT22;50104;52.002;4.688;2023-07-13T10:02:59;22.30;70.30
47546;DHT22;50104;52.002;4.688;2023-07-13T10:08:36;22.30;71.30
47546;DHT22;50104;52.002;4.688;2023-07-13T10:13:42;22.40;71.70
47546;DHT22;50104;52.002;4.688;2023-07-13T10:18:58;22.50;72.40
47546;DHT22;50104;52.002;4.688;2023-07-13T10:24:12;22.70;72.60
47546;DHT22;50104;52.002;4.688;2023-07-13T10:29:17;22.90;72.00
47546;DHT22;50104;52.002;4.688;2023-07-13T10:34:19;23.00;70.30
47546;DHT22;50104;52.002;4.688;2023-07-13T10:39:24;23.20;70.70
47546;DHT22;50104;52.002;4.688;2023-07-13T10:44:29;23.40;70.50
47546;DHT22;50104;52.002;4.688;2023-07-13T10:49:32;23.60;69.80
47546;DHT22;50104;52.002;4.688;2023-07-13T10:54:34;23.80;68.40
47546;DHT22;50104;52.002;4.688;2023-07-13T10:59:35;23.90;67.60
47546;DHT22;50104;52.002;4.688;2023-07-13T11:04:46;23.90;66.30
47546;DHT22;50104;52.002;4.688;2023-07-13T11:09:53;23.80;65.80
47546;DHT22;50104;52.002;4.688;2023-07-13T11:20:19;23.80;64.60
47546;DHT22;50104;52.002;4.688;2023-07-13T11:25:30;23.90;65.00
47546;DHT22;50104;52.002;4.688;2023-07-13T11:40:59;24.00;63.10
47546;DHT22;50104;52.002;4.688;2023-07-13T11:46:23;24.10;62.70
47546;DHT22;50104;52.002;4.688;2023-07-13T11:51:35;24.20;62.00
47546;DHT22;50104;52.002;4.688;2023-07-13T11:56:36;24.20;61.60
47546;DHT22;50104;52.002;4.688;2023-07-13T12:01:58;24.40;61.70
47546;DHT22;50104;52.002;4.688;2023-07-13T12:07:19;24.60;61.40
47546;DHT22;50104;52.002;4.688;2023-07-13T12:12:22;24.70;60.20
47546;DHT22;50104;52.002;4.688;2023-07-13T12:17:24;24.90;60.50
47546;DHT22;50104;52.002;4.688;2023-07-13T12:22:25;25.10;59.40
47546;DHT22;50104;52.002;4.688;2023-07-13T12:27:27;25.20;59.20
47546;DHT22;50104;52.002;4.688;2023-07-13T12:32:29;25.40;59.00
47546;DHT22;50104;52.002;4.688;2023-07-13T12:37:34;25.50;58.50
47546;DHT22;50104;52.002;4.688;2023-07-13T12:42:38;25.70;57.50
47546;DHT22;50104;52.002;4.688;2023-07-13T12:47:41;25.70;58.00
47546;DHT22;50104;52.002;4.688;2023-07-13T12:52:43;25.80;57.80
47546;DHT22;50104;52.002;4.688;2023-07-13T12:57:57;25.90;56.50
47546;DHT22;50104;52.002;4.688;2023-07-13T13:03:05;26.00;56.70
47546;DHT22;50104;52.002;4.688;2023-07-13T13:08:22;26.10;56.70
47546;DHT22;50104;52.002;4.688;2023-07-13T13:13:22;26.10;56.60
47546;DHT22;50104;52.002;4.688;2023-07-13T13:18:24;26.20;56.40
47546;DHT22;50104;52.002;4.688;2023-07-13T13:23:25;26.30;56.10
47546;DHT22;50104;52.002;4.688;2023-07-13T13:28:26;26.40;56.50
47546;DHT22;50104;52.002;4.688;2023-07-13T13:33:27;26.50;55.20
47546;DHT22;50104;52.002;4.688;2023-07-13T13:38:28;26.50;56.00
47546;DHT22;50104;52.002;4.688;2023-07-13T13:43:29;26.60;55.30
47546;DHT22;50104;52.002;4.688;2023-07-13T13:48:32;26.60;55.10
47546;DHT22;50104;52.002;4.688;2023-07-13T13:53:34;26.70;54.40
47546;DHT22;50104;52.002;4.688;2023-07-13T13:58:35;26.80;54.60
47546;DHT22;50104;52.002;4.688;2023-07-13T14:03:35;26.80;53.30
47546;DHT22;50104;52.002;4.688;2023-07-13T14:08:36;26.90;52.70
47546;DHT22;50104;52.002;4.688;2023-07-13T14:13:50;26.90;52.40
47546;DHT22;50104;52.002;4.688;2023-07-13T14:18:54;27.00;52.90
47546;DHT22;50104;52.002;4.688;2023-07-13T14:23:56;27.00;53.00
47546;DHT22;50104;52.002;4.688;2023-07-13T14:28:57;27.00;52.60
47546;DHT22;50104;52.002;4.688;2023-07-13T14:33:58;27.00;52.30
47546;DHT22;50104;52.002;4.688;2023-07-13T14:39:05;27.10;52.80
47546;DHT22;50104;52.002;4.688;2023-07-13T14:44:17;27.10;52.70
47546;DHT22;50104;52.002;4.688;2023-07-13T14:49:23;27.20;52.40
47546;DHT22;50104;52.002;4.688;2023-07-13T14:54:30;27.20;53.10
47546;DHT22;50104;52.002;4.688;2023-07-13T14:59:31;27.10;51.70
47546;DHT22;50104;52.002;4.688;2023-07-13T15:04:32;27.10;52.30
47546;DHT22;50104;52.002;4.688;2023-07-13T15:09:32;27.10;52.70
47546;DHT22;50104;52.002;4.688;2023-07-13T15:14:33;27.20;52.70
47546;DHT22;50104;52.002;4.688;2023-07-13T15:19:34;27.20;53.00
47546;DHT22;50104;52.002;4.688;2023-07-13T15:24:36;27.30;53.00
47546;DHT22;50104;52.002;4.688;2023-07-13T15:29:37;27.30;53.60
47546;DHT22;50104;52.002;4.688;2023-07-13T15:34:38;27.40;52.90
47546;DHT22;50104;52.002;4.688;2023-07-13T15:39:39;27.40;53.20
47546;DHT22;50104;52.002;4.688;2023-07-13T15:44:40;27.40;53.20
47546;DHT22;50104;52.002;4.688;2023-07-13T15:49:41;27.40;52.90
47546;DHT22;50104;52.002;4.688;2023-07-13T15:54:42;27.40;53.20
47546;DHT22;50104;52.002;4.688;2023-07-13T15:59:43;27.50;53.90
47546;DHT22;50104;52.002;4.688;2023-07-13T16:04:44;27.50;53.60
47546;DHT22;50104;52.002;4.688;2023-07-13T16:09:45;27.50;54.00
47546;DHT22;50104;52.002;4.688;2023-07-13T16:14:47;27.50;53.30
47546;DHT22;50104;52.002;4.688;2023-07-13T16:19:48;27.50;54.10
47546;DHT22;50104;52.002;4.688;2023-07-13T16:24:49;27.50;54.00
47546;DHT22;50104;52.002;4.688;2023-07-13T16:29:55;27.50;55.00
47546;DHT22;50104;52.002;4.688;2023-07-13T16:34:56;27.40;55.00
47546;DHT22;50104;52.002;4.688;2023-07-13T16:39:58;27.30;55.10
47546;DHT22;50104;52.002;4.688;2023-07-13T16:45:00;27.10;55.30
47546;DHT22;50104;52.002;4.688;2023-07-13T16:50:01;26.90;55.40
47546;DHT22;50104;52.002;4.688;2023-07-13T16:55:04;26.80;56.00
47546;DHT22;50104;52.002;4.688;2023-07-13T17:00:22;26.70;55.40
47546;DHT22;50104;52.002;4.688;2023-07-13T17:05:41;26.60;56.00
47546;DHT22;50104;52.002;4.688;2023-07-13T17:10:45;26.50;56.00
47546;DHT22;50104;52.002;4.688;2023-07-13T17:15:50;26.40;56.10
47546;DHT22;50104;52.002;4.688;2023-07-13T17:20:57;26.40;55.80
47546;DHT22;50104;52.002;4.688;2023-07-13T17:25:59;26.30;56.80
47546;DHT22;50104;52.002;4.688;2023-07-13T17:31:00;26.30;56.20
47546;DHT22;50104;52.002;4.688;2023-07-13T17:36:04;26.20;56.40
47546;DHT22;50104;52.002;4.688;2023-07-13T17:41:08;26.20;57.10
47546;DHT22;50104;52.002;4.688;2023-07-13T17:46:17;26.10;56.30
47546;DHT22;50104;52.002;4.688;2023-07-13T17:51:28;26.10;56.40
47546;DHT22;50104;52.002;4.688;2023-07-13T17:56:29;26.00;57.00
47546;DHT22;50104;52.002;4.688;2023-07-13T18:01:32;26.00;56.70
47546;DHT22;50104;52.002;4.688;2023-07-13T18:06:35;25.90;57.00
47546;DHT22;50104;52.002;4.688;2023-07-13T18:11:38;25.80;56.70
47546;DHT22;50104;52.002;4.688;2023-07-13T18:16:40;25.70;57.00
47546;DHT22;50104;52.002;4.688;2023-07-13T18:21:42;25.60;57.10
47546;DHT22;50104;52.002;4.688;2023-07-13T18:26:43;25.50;57.60
47546;DHT22;50104;52.002;4.688;2023-07-13T18:31:44;25.40;57.70
47546;DHT22;50104;52.002;4.688;2023-07-13T18:36:45;25.30;57.80
47546;DHT22;50104;52.002;4.688;2023-07-13T18:41:46;25.20;58.10
47546;DHT22;50104;52.002;4.688;2023-07-13T18:46:47;25.00;58.40
47546;DHT22;50104;52.002;4.688;2023-07-13T18:51:48;24.90;58.50
47546;DHT22;50104;52.002;4.688;2023-07-13T18:56:51;24.70;58.70
47546;DHT22;50104;52.002;4.688;2023-07-13T19:01:51;24.60;59.10
47546;DHT22;50104;52.002;4.688;2023-07-13T19:06:52;24.40;59.30
47546;DHT22;50104;52.002;4.688;2023-07-13T19:11:53;24.20;59.50
47546;DHT22;50104;52.002;4.688;2023-07-13T19:16:54;24.10;59.90
47546;DHT22;50104;52.002;4.688;2023-07-13T19:21:57;23.90;60.10
47546;DHT22;50104;52.002;4.688;2023-07-13T19:27:01;23.70;60.10
47546;DHT22;50104;52.002;4.688;2023-07-13T19:32:02;23.60;60.20
47546;DHT22;50104;52.002;4.688;2023-07-13T19:37:19;23.40;60.20
47546;DHT22;50104;52.002;4.688;2023-07-13T19:42:23;23.20;60.40
47546;DHT22;50104;52.002;4.688;2023-07-13T19:47:25;23.00;60.70
47546;DHT22;50104;52.002;4.688;2023-07-13T19:52:27;22.90;61.00
47546;DHT22;50104;52.002;4.688;2023-07-13T19:57:30;22.70;61.30
47546;DHT22;50104;52.002;4.688;2023-07-13T20:02:31;22.60;61.70
47546;DHT22;50104;52.002;4.688;2023-07-13T20:07:32;22.40;62.20
47546;DHT22;50104;52.002;4.688;2023-07-13T20:12:35;22.30;62.30
47546;DHT22;50104;52.002;4.688;2023-07-13T20:17:37;22.20;62.60
47546;DHT22;50104;52.002;4.688;2023-07-13T20:22:38;22.00;62.60
47546;DHT22;50104;52.002;4.688;2023-07-13T20:27:39;21.90;62.80
47546;DHT22;50104;52.002;4.688;2023-07-13T20:32:40;21.80;62.80
47546;DHT22;50104;52.002;4.688;2023-07-13T20:37:40;21.70;62.80
47546;DHT22;50104;52.002;4.688;2023-07-13T20:42:43;21.50;62.80
47546;DHT22;50104;52.002;4.688;2023-07-13T20:47:45;21.40;63.00
47546;DHT22;50104;52.002;4.688;2023-07-13T20:52:48;21.30;63.20
47546;DHT22;50104;52.002;4.688;2023-07-13T20:57:52;21.20;63.50
47546;DHT22;50104;52.002;4.688;2023-07-13T21:03:10;21.10;63.50
47546;DHT22;50104;52.002;4.688;2023-07-13T21:08:19;21.00;63.80
47546;DHT22;50104;52.002;4.688;2023-07-13T21:13:21;20.90;63.90
47546;DHT22;50104;52.002;4.688;2023-07-13T21:18:23;20.80;64.00
47546;DHT22;50104;52.002;4.688;2023-07-13T21:23:28;20.70;64.40
47546;DHT22;50104;52.002;4.688;2023-07-13T21:28:41;20.60;64.70
47546;DHT22;50104;52.002;4.688;2023-07-13T21:33:44;20.50;65.10
47546;DHT22;50104;52.002;4.688;2023-07-13T21:38:45;20.40;65.20
47546;DHT22;50104;52.002;4.688;2023-07-13T21:43:46;20.30;65.20
47546;DHT22;50104;52.002;4.688;2023-07-13T21:48:47;20.20;65.80
47546;DHT22;50104;52.002;4.688;2023-07-13T21:53:48;20.10;66.00
47546;DHT22;50104;52.002;4.688;2023-07-13T21:58:50;20.00;66.40
47546;DHT22;50104;52.002;4.688;2023-07-13T22:03:56;20.00;66.60
47546;DHT22;50104;52.002;4.688;2023-07-13T22:08:57;19.90;66.70
47546;DHT22;50104;52.002;4.688;2023-07-13T22:13:58;19.80;66.60
47546;DHT22;50104;52.002;4.688;2023-07-13T22:19:05;19.70;67.10
47546;DHT22;50104;52.002;4.688;2023-07-13T22:24:16;19.60;67.20
47546;DHT22;50104;52.002;4.688;2023-07-13T22:29:21;19.40;67.30
47546;DHT22;50104;52.002;4.688;2023-07-13T22:34:24;19.30;67.60
47546;DHT22;50104;52.002;4.688;2023-07-13T22:39:28;19.20;68.00
47546;DHT22;50104;52.002;4.688;2023-07-13T22:44:32;19.10;68.40
47546;DHT22;50104;52.002;4.688;2023-07-13T22:49:34;19.00;68.70
47546;DHT22;50104;52.002;4.688;2023-07-13T22:54:36;18.90;69.20
47546;DHT22;50104;52.002;4.688;2023-07-13T22:59:36;18.90;69.30
47546;DHT22;50104;52.002;4.688;2023-07-13T23:04:37;18.80;70.00
47546;DHT22;50104;52.002;4.688;2023-07-13T23:09:38;18.70;70.40
47546;DHT22;50104;52.002;4.688;2023-07-13T23:14:39;18.70;70.80
47546;DHT22;50104;52.002;4.688;2023-07-13T23:19:39;18.60;71.00
47546;DHT22;50104;52.002;4.688;2023-07-13T23:24:40;18.50;71.10
47546;DHT22;50104;52.002;4.688;2023-07-13T23:29:41;18.50;71.60
47546;DHT22;50104;52.002;4.688;2023-07-13T23:34:42;18.40;72.10
47546;DHT22;50104;52.002;4.688;2023-07-13T23:39:43;18.40;72.20
47546;DHT22;50104;52.002;4.688;2023-07-13T23:44:43;18.30;72.00
47546;DHT22;50104;52.002;4.688;2023-07-13T23:49:45;18.30;72.40
47546;DHT22;50104;52.002;4.688;2023-07-13T23:54:46;18.20;73.10
47546;DHT22;50104;52.002;4.688;2023-07-13T23:59:47;18.20;73.30
